Last 30 Days

Bell Hill-West

Daily Data | America/Los_Angeles
as of 5/2/26 2:33 PM PDT
Date Daily Max Temp (°F) Time of Max Temp Daily Min Temp (°F) Time of Min Temp Daily Rain (In) Month Precip (In) Season Precip (In) Wind Spd (mph) Daily Max Wind (mph) Time of Max Wind Max Wind Dir (°) Daily ETo (in) 7 Day ETo (in) Daily Solar Rad (Cal/cm2) Dew Pt (°F) Daily Max RH (%) Daily Min RH (%) Hrs 70-85F (hrs) Hrs > 95F (hrs) Powdery Mildew Stress (pts) GDDs (DL) GDDs (Mx/Mn) Seas GDDs (DL) Seas GDDs (Smpl) Hrs <= 32F (hrs) Hrs <= 28F (hrs) Chilling <=45F (hrs) Chill Hrs 32-45F (hrs) Utah Chilling (Units) Degree Hrs (hrs) Max 1 Min Rain (In) Max 1 Min Rain Time Max 15 Min Rain (In) Max 15 Min Precip Time Max 60 Min Rain (In) Max 60 Min Rain Time MinBV Day (V)
5/1/26 81.7 1458 45.0 0551 0.00 0.00 22.95 3.3 12.1 1444 WSW | 245 0.198 1.17 597 51.4 100 27 9.57 0.00 60 14.6 13.4 194 121 0.0 0.0 0.0 0.0 0.5 125.6 - - - - - - 12.6
4/30/26 81.7 1550 40.5 0609 0.00 2.78 22.95 3.3 13.2 1812 W | 263 0.212 1.15 669 46.9 100 22 9.14 0.00 40 13.4 11.1 179 108 0.0 0.0 5.6 5.6 1.0 115.7 - - - - - - 12.6
4/29/26 77.2 1636 40.1 0611 0.00 2.78 22.95 3.2 13.8 1315 WSW | 240 0.200 1.11 664 46.0 100 30 7.13 0.00 20 11.1 8.6 166 97 0.0 0.0 5.7 5.7 2.0 73.2 - - - - - - 12.6
4/28/26 70.3 1445 38.0 0548 0.00 2.78 22.95 2.9 13.5 1803 SSW | 211 0.171 1.02 612 45.4 100 28 0.16 0.00 0 7.8 4.2 155 88 0.0 0.0 6.6 6.6 3.0 22.9 - - - - - - 12.6
4/27/26 65.3 1534 43.6 0023 0.00 2.78 22.95 2.5 13.5 1109 NE | 56 0.143 0.94 538 45.3 100 37 0.00 0.00 0 4.8 4.4 147 84 0.0 0.0 1.0 1.0 3.0 0.0 - - - - - - 12.6
4/26/26 60.7 1419 46.5 0617 0.00 2.78 22.95 4.2 16.5 1748 S | 188 0.117 0.83 469 44.6 93 51 0.00 0.00 0 2.7 3.6 142 80 0.0 0.0 0.0 0.0 3.0 0.0 - - - - - - 12.6
4/25/26 59.9 1335 42.6 0405 0.00 2.78 22.95 4.7 18.2 1731 SSW | 194 0.125 0.87 570 47.4 100 71 0.00 0.00 0 2.7 1.2 139 76 0.0 0.0 5.5 5.5 3.5 0.0 - - - - - - 12.6
4/24/26 70.7 1321 39.7 0626 0.00 2.78 22.95 4.0 17.5 1551 S | 186 0.180 0.92 639 47.4 100 34 0.29 0.00 0 7.9 5.2 137 75 0.0 0.0 6.3 6.3 3.0 24.2 - - - - - - 12.6
4/23/26 71.6 1720 35.8 0621 0.00 2.78 22.95 3.1 13.8 1749 SSW | 192 0.176 0.91 647 43.7 100 32 0.85 0.00 0 7.0 3.7 129 70 0.0 0.0 7.0 7.0 3.0 19.0 - - - - - - 12.6
4/22/26 62.2 1627 40.5 0059 0.02 2.78 22.95 2.1 10.8 1613 NW | 315 0.111 0.90 448 46.2 100 52 0.00 0.00 0 3.3 1.3 122 66 0.0 0.0 4.7 4.7 4.0 0.0 0.01 1137 0.01 1151 0.01 1236 12.6
4/21/26 58.1 1655 41.1 2355 0.22 2.76 22.93 3.5 17.2 1615 SW | 217 0.093 0.92 405 46.2 100 57 0.00 0.00 0 1.5 0.0 118 65 0.0 0.0 2.8 2.8 5.5 0.0 0.01 1354 0.07 0940 0.16 1002 12.6
4/20/26 54.4 1529 46.4 0430 0.54 2.54 22.71 1.8 14.2 1155 E | 96 0.028 0.96 120 48.1 100 39 0.00 0.00 0 0.5 0.4 117 65 0.0 0.0 0.0 0.0 14.0 0.0 0.01 2349 0.04 1345 0.10 1409 12.5
4/19/26 68.4 1332 37.4 0634 0.00 2.00 22.17 3.5 14.8 1428 S | 186 0.154 1.07 446 31.6 100 13 0.00 0.00 0 7.0 2.9 116 64 0.0 0.0 6.9 6.9 2.0 8.3 - - - - - - 12.6
4/18/26 73.6 1458 35.5 0627 0.00 2.00 22.17 3.1 12.1 1709 SSW | 200 0.174 0.99 580 41.3 100 28 4.44 0.00 0 8.6 4.6 110 61 0.0 0.0 6.9 6.9 2.5 40.2 - - - - - - 12.6
4/17/26 72.4 1726 31.7 0655 0.00 2.00 22.17 2.9 12.5 1854 SSW | 194 0.176 0.86 637 33.5 100 16 2.95 0.00 10 7.5 2.0 101 57 0.5 0.0 9.6 9.1 3.5 28.6 - - - - - - 12.5
4/16/26 65.8 1547 34.4 0656 0.00 2.00 22.17 2.8 14.8 1237 NNE | 25 0.164 0.72 635 35.1 100 18 0.00 0.00 20 4.8 0.1 93 55 0.0 0.0 10.3 10.3 4.5 0.0 - - - - - - 12.5
4/15/26 63.6 1404 35.9 0608 0.00 2.00 22.17 3.6 19.2 1601 SSW | 210 0.128 0.70 514 45.2 100 53 0.00 0.00 30 3.7 0.0 89 55 0.0 0.0 7.6 7.6 4.0 0.0 - - - - - - 12.6
4/14/26 65.7 1705 35.0 0615 0.00 2.00 22.17 3.2 14.5 1310 WSW | 258 0.140 0.74 564 44.3 100 45 0.00 0.00 40 4.6 0.3 85 55 0.0 0.0 9.0 9.0 4.0 0.0 - - - - - - 12.6
4/13/26 63.4 1549 34.7 0405 0.00 2.00 22.17 2.7 12.8 1612 WNW | 283 0.130 0.78 547 42.8 100 49 0.00 0.00 50 3.3 0.0 80 54 0.0 0.0 9.7 9.7 4.0 0.0 - - - - - - 12.6
4/12/26 56.0 1629 39.6 2253 0.14 2.00 22.17 5.0 17.5 1332 SSW | 208 0.077 0.84 360 44.5 100 62 0.00 0.00 60 0.9 0.0 77 54 0.0 0.0 10.0 10.0 6.5 0.0 0.01 1213 0.04 0800 0.06 0830 12.5
4/11/26 54.4 1246 42.4 1821 0.78 1.86 22.03 4.1 28.2 1554 SSW | 203 0.040 0.93 200 47.3 100 80 0.00 0.00 70 0.4 0.0 76 54 0.0 0.0 8.6 8.6 16.5 0.0 0.06 1614 0.17 1625 0.26 1703 12.6
4/10/26 58.2 1157 46.9 2353 1.02 1.08 21.25 1.5 10.8 1431 SSE | 160 0.042 1.06 169 51.4 100 80 0.00 0.00 80 2.3 2.6 76 54 0.0 0.0 0.0 0.0 5.5 0.0 0.02 1516 0.11 1844 0.27 1608 12.5
4/9/26 69.7 1333 43.5 0658 0.00 0.06 20.23 4.4 17.8 1308 SSW | 202 0.144 1.18 510 50.3 100 52 0.00 0.00 90 7.6 6.6 74 52 0.0 0.0 3.2 3.2 1.5 12.5 - - - - - - 12.6
4/8/26 77.5 1413 44.9 0551 0.00 0.06 20.23 3.8 17.5 1556 S | 179 0.162 1.18 502 50.0 100 41 7.52 0.00 100 11.2 11.2 66 45 0.0 0.0 0.1 0.1 1.0 74.1 - - - - - - 12.5
4/7/26 76.0 1525 37.8 0621 0.00 0.06 20.23 3.5 15.8 1404 WSW | 244 0.182 1.06 580 41.4 100 23 6.82 0.00 100 10.3 6.9 55 34 0.0 0.0 6.4 6.4 0.5 64.2 - - - - - - 12.6
4/6/26 77.3 1458 38.5 0643 0.00 0.06 20.23 3.8 15.2 1307 SW | 228 0.189 0.92 588 44.2 100 18 7.61 0.00 100 11.2 7.9 44 27 0.0 0.0 6.9 6.9 1.5 80.7 - - - - - - 12.6
4/5/26 79.7 1506 39.5 0731 0.00 0.06 20.23 3.4 14.2 1522 SSW | 200 0.173 0.83 538 42.5 100 22 7.46 0.00 90 11.0 9.6 33 19 0.0 0.0 7.4 7.4 2.0 87.2 - - - - - - 12.6
4/4/26 78.2 1630 34.9 0653 0.00 0.06 20.23 3.0 13.5 1451 E | 81 0.171 0.82 556 39.4 100 19 7.28 0.00 70 10.6 6.5 22 10 0.0 0.0 8.2 8.2 2.5 80.3 - - - - - - 12.6
4/3/26 74.1 1702 32.0 0702 0.00 0.06 20.23 2.6 11.1 1403 NNE | 33 0.164 0.81 592 34.8 100 17 5.61 0.00 50 7.7 3.0 12 3 0.0 0.0 10.8 10.8 -3.5 44.5 - - - - - - 12.6
4/2/26 60.6 1711 36.1 0725 0.00 0.06 20.23 2.9 13.5 1103 WNW | 285 0.135 0.80 580 39.5 100 42 0.00 0.00 60 2.7 0.0 4 0 0.0 0.0 11.2 11.2 5.0 0.0 - - - - - - 12.5
Max 81.7 - 46.9 - 1.02 2.78 22.95 5.0 28.2 - - 0.212 1.18 669 51.4 100 80 9.57 0.00 - 14.6 13.4 - - 0.5 0.0 11.2 11.2 16.5 125.6 0.06 - 0.17 - 0.27 - 12.6
Avg - - - - - - - 3.3 - - - - - - 43.9 - - 2.56 0.00 - 6.4 4.0 - - 0.0 0.0 5.9 5.9 3.6 - - - - - - - -
Min 54.4 - 31.7 - 0.00 0.00 20.23 1.5 10.8 - - 0.028 0.70 120 31.6 93 13 0.00 0.00 - 0.4 0.0 - - 0.0 0.0 0.0 0.0 -3.5 0.0 0.01 - 0.01 - 0.01 - 12.5
Total - - - - - - - - - - - - - - - - - 76.81 0.00 - 192.5 121.4 - - 0.5 0.0 178.1 177.5 109.0 - - - - - - - -